Skagen, Denmark
Current Conditions -  °F | °C
As of 10:50 AM on Friday 19 Dec 2014 (Local Time) from ESGP Reporting Station
Light Rain Light Rain  
Wind Chill: 37°   Ceiling: 5300
Heat Index: 43°   Visibility: 6mi
Dew Point: 37°   Wind: 10mph
Humidity: 81%   Direction: 220°SW
Pressure: 29.29"   Gusts: NA
Location:  57.72°N, 10.58°E
Report Text: ESGP 190950Z 22009KT 200V270 9999 -RA FEW022 SCT031 BKN053CB06/03 Q0992 R19/29//95
Loading
Personal Weather Stations






























Interactive Weather Map New forecast layout! Learn more

10-Day Weather Forecast

Advertisements
Track Severe Weather on mobile